Time;durP1;ratioP1;P1;durP2;ratioP2;P2;SDS_P1;SDS_P2;PMS_P1;PMS_P2;Temp;Humidity;BMP_temperature;BMP_pressure;BME280_temperature;BME280_humidity;BME280_pressure;Samples;Min_cycle;Max_cycle;Signal;HPM_P1;HPM_P2
2022/11/28 00:01:17;;;;;;;;;;;;;;;;;;5089338;28;19924;-70
2022/11/28 00:03:46;;;;;;;;;;;;;;;;;;5087569;28;20419;-72
2022/11/28 00:06:12;;;;;;;;;;;;;;;;;;5084496;28;20031;-71
2022/11/28 00:08:38;;;;;;;;;;;;;;;;;;5079902;28;19925;-71
2022/11/28 00:11:04;;;;;;;;;;;;;;;;;;5086689;28;20340;-71
2022/11/28 00:13:30;;;;;;;;;;;;;;;;;;5080362;28;19951;-72
2022/11/28 00:15:56;;;;;;;;;;;;;;;;;;5089458;28;19935;-71
2022/11/28 00:18:21;;;;;;;;;;;;;;;;;;5091028;28;20349;-71
2022/11/28 00:20:47;;;;;;;;;;;;;;;;;;5090031;28;19939;-72
2022/11/28 00:23:13;;;;;;;;;;;;;;;;;;5081026;28;19970;-70
2022/11/28 00:25:39;;;;;;;;;;;;;;;;;;5088133;28;20315;-70
2022/11/28 00:28:05;;;;;;;;;;;;;;;;;;5089264;28;19932;-70
2022/11/28 00:30:31;;;;;;;;;;;;;;;;;;5089548;28;19928;-71
2022/11/28 00:32:57;;;;;;;;;;;;;;;;;;5081987;28;20345;-71
2022/11/28 00:35:23;;;;;;;;;;;;;;;;;;5089998;28;20018;-71
2022/11/28 00:37:49;;;;;;;;;;;;;;;;;;5085976;28;19924;-71
2022/11/28 00:40:15;;;;;;;;;;;;;;;;;;5080945;28;20011;-71
2022/11/28 00:42:40;;;;;;;;;;;;;;;;;;5079339;28;20334;-71
2022/11/28 00:45:06;;;;;;;;;;;;;;;;;;5089199;28;19978;-71
2022/11/28 00:47:32;;;;;;;;;;;;;;;;;;5083760;28;20335;-72
2022/11/28 00:49:58;;;;;;;;;;;;;;;;;;5095831;28;19924;-72
2022/11/28 00:52:24;;;;;;;;;;;;;;;;;;5092042;28;19924;-72
2022/11/28 00:54:50;;;;;;;;;;;;;;;;;;5088003;28;20276;-71
2022/11/28 00:57:16;;;;;;;;;;;;;;;;;;5091576;28;19939;-71
2022/11/28 00:59:42;;;;;;;;;;;;;;;;;;5081404;28;19931;-72
2022/11/28 01:02:08;;;;;;;;;;;;;;;;;;5082033;28;19939;-70
2022/11/28 01:04:33;;;;;;;;;;;;;;;;;;5094744;28;19924;-71
2022/11/28 01:07:01;;;;;;;;;;;;;;;;;;5084310;28;19925;-72
2022/11/28 01:09:27;;;;;;;;;;;;;;;;;;5077623;28;19982;-71
2022/11/28 01:11:53;;;;;;;;;;;;;;;;;;5095106;28;19924;-72
2022/11/28 01:14:18;;;;;;;;;;;;;;;;;;5094745;28;19924;-71
2022/11/28 01:16:44;;;;;;;;;;;;;;;;;;5075079;28;19924;-71
2022/11/28 01:19:10;;;;;;;;;;;;;;;;;;5094218;28;20270;-71
2022/11/28 01:21:36;;;;;;;;;;;;;;;;;;5093013;28;19956;-72
2022/11/28 01:24:02;;;;;;;;;;;;;;;;;;5091558;28;19975;-72
2022/11/28 01:26:28;;;;;;;;;;;;;;;;;;5095851;28;19924;-71
2022/11/28 01:28:54;;;;;;;;;;;;;;;;;;5086728;28;20408;-71
2022/11/28 01:31:20;;;;;;;;;;;;;;;;;;5085754;28;19939;-71
2022/11/28 01:33:46;;;;;;;;;;;;;;;;;;5089682;28;19924;-71
2022/11/28 01:36:12;;;;;;;;;;;;;;;;;;5091741;28;19928;-71
2022/11/28 01:38:38;;;;;;;;;;;;;;;;;;5090982;28;19928;-72
2022/11/28 01:41:04;;;;;;;;;;;;;;;;;;5091688;28;19924;-72
2022/11/28 01:43:30;;;;;;;;;;;;;;;;;;5090498;28;19930;-72
2022/11/28 01:45:56;;;;;;;;;;;;;;;;;;5089246;28;19924;-72
2022/11/28 01:48:21;;;;;;;;;;;;;;;;;;5090370;28;19924;-72
2022/11/28 01:50:48;;;;;;;;;;;;;;;;;;5087205;28;19940;-72
2022/11/28 01:53:14;;;;;;;;;;;;;;;;;;5089215;28;19924;-71
2022/11/28 01:55:40;;;;;;;;;;;;;;;;;;5093352;28;19930;-71
2022/11/28 01:58:06;;;;;;;;;;;;;;;;;;5092579;28;19930;-71
2022/11/28 02:00:33;;;;;;;;;;;;;;;;;;5091722;28;19924;-71
2022/11/28 02:02:59;;;;;;;;;;;;;;;;;;5088161;28;19951;-70
2022/11/28 02:05:25;;;;;;;;;;;;;;;;;;5085261;28;20337;-71
2022/11/28 02:07:51;;;;;;;;;;;;;;;;;;5087597;28;19950;-71
2022/11/28 02:10:17;;;;;;;;;;;;;;;;;;5088737;28;19925;-71
2022/11/28 02:12:42;;;;;;;;;;;;;;;;;;5089972;28;20381;-72
2022/11/28 02:15:08;;;;;;;;;;;;;;;;;;5093849;28;19931;-71
2022/11/28 02:17:34;;;;;;;;;;;;;;;;;;5082101;28;19924;-71
2022/11/28 02:20:00;;;;;;;;;;;;;;;;;;5085913;28;19974;-70
2022/11/28 02:22:26;;;;;;;;;;;;;;;;;;5088308;28;19971;-72
2022/11/28 02:24:52;;;;;;;;;;;;;;;;;;5090309;28;20003;-71
2022/11/28 02:27:18;;;;;;;;;;;;;;;;;;5086685;28;19936;-71
2022/11/28 02:29:44;;;;;;;;;;;;;;;;;;5088163;28;20242;-71
2022/11/28 02:32:10;;;;;;;;;;;;;;;;;;5087902;28;19961;-71
2022/11/28 02:34:36;;;;;;;;;;;;;;;;;;5090972;28;20321;-71
2022/11/28 02:37:01;;;;;;;;;;;;;;;;;;5089036;28;19924;-70
2022/11/28 02:39:27;;;;;;;;;;;;;;;;;;5090617;28;19924;-72
2022/11/28 02:41:53;;;;;;;;;;;;;;;;;;5090331;28;19924;-71
2022/11/28 02:44:19;;;;;;;;;;;;;;;;;;5086232;28;19932;-71
2022/11/28 02:46:45;;;;;;;;;;;;;;;;;;5089482;28;20289;-71
2022/11/28 02:49:11;;;;;;;;;;;;;;;;;;5090324;28;19924;-72
2022/11/28 02:51:37;;;;;;;;;;;;;;;;;;5086811;28;19969;-71
2022/11/28 02:54:03;;;;;;;;;;;;;;;;;;5087083;28;19932;-72
2022/11/28 02:56:29;;;;;;;;;;;;;;;;;;5082377;28;19968;-71
2022/11/28 02:58:55;;;;;;;;;;;;;;;;;;5080741;28;19931;-70
2022/11/28 03:01:21;;;;;;;;;;;;;;;;;;5091272;28;19931;-70
2022/11/28 03:03:47;;;;;;;;;;;;;;;;;;5092907;28;19924;-71
2022/11/28 03:06:13;;;;;;;;;;;;;;;;;;5090499;28;20007;-70
2022/11/28 03:08:39;;;;;;;;;;;;;;;;;;5086399;28;19932;-71
2022/11/28 03:11:05;;;;;;;;;;;;;;;;;;5079904;28;19954;-71
2022/11/28 03:13:31;;;;;;;;;;;;;;;;;;5089241;28;20266;-71
2022/11/28 03:15:57;;;;;;;;;;;;;;;;;;5088710;28;19928;-70
2022/11/28 03:18:23;;;;;;;;;;;;;;;;;;5090871;28;19931;-71
2022/11/28 03:20:49;;;;;;;;;;;;;;;;;;5088839;28;20324;-76
2022/11/28 03:23:15;;;;;;;;;;;;;;;;;;5089856;28;20027;-71
2022/11/28 03:25:41;;;;;;;;;;;;;;;;;;5088961;28;19924;-71
2022/11/28 03:28:06;;;;;;;;;;;;;;;;;;5090879;28;20027;-71
2022/11/28 03:30:32;;;;;;;;;;;;;;;;;;5083347;28;19924;-71
2022/11/28 03:32:58;;;;;;;;;;;;;;;;;;5090304;28;19981;-72
2022/11/28 03:35:24;;;;;;;;;;;;;;;;;;5091430;28;19975;-72
2022/11/28 03:37:50;;;;;;;;;;;;;;;;;;5090205;28;20030;-72
2022/11/28 03:40:19;;;;;;;;;;;;;;;;;;5069530;28;19928;-71
2022/11/28 03:42:45;;;;;;;;;;;;;;;;;;5090756;28;20352;-71
2022/11/28 03:45:11;;;;;;;;;;;;;;;;;;5089200;28;20006;-71
2022/11/28 03:47:36;;;;;;;;;;;;;;;;;;5088129;28;19969;-71
2022/11/28 03:50:02;;;;;;;;;;;;;;;;;;5088937;28;19924;-71
2022/11/28 03:52:28;;;;;;;;;;;;;;;;;;5091466;28;19967;-71
2022/11/28 03:54:54;;;;;;;;;;;;;;;;;;5087596;28;20023;-71
2022/11/28 03:57:20;;;;;;;;;;;;;;;;;;5090052;28;19924;-71
2022/11/28 03:59:46;;;;;;;;;;;;;;;;;;5080766;28;19946;-71
2022/11/28 04:02:12;;;;;;;;;;;;;;;;;;5088638;28;19928;-71
2022/11/28 04:04:38;;;;;;;;;;;;;;;;;;5088828;28;19978;-71
2022/11/28 04:07:04;;;;;;;;;;;;;;;;;;5088603;28;20262;-71
2022/11/28 04:09:30;;;;;;;;;;;;;;;;;;5089637;28;19924;-71
2022/11/28 04:11:56;;;;;;;;;;;;;;;;;;5081060;28;19925;-71
2022/11/28 04:14:22;;;;;;;;;;;;;;;;;;5087153;28;20280;-70
2022/11/28 04:16:47;;;;;;;;;;;;;;;;;;5082377;28;19924;-70
2022/11/28 04:19:13;;;;;;;;;;;;;;;;;;5087122;28;20079;-70
2022/11/28 04:21:39;;;;;;;;;;;;;;;;;;5092506;28;20296;-71
2022/11/28 04:24:05;;;;;;;;;;;;;;;;;;5092251;28;19957;-71
2022/11/28 04:26:31;;;;;;;;;;;;;;;;;;5090597;28;20001;-71
2022/11/28 04:28:57;;;;;;;;;;;;;;;;;;5096366;28;19932;-70
2022/11/28 04:31:23;;;;;;;;;;;;;;;;;;5094036;28;20387;-71
2022/11/28 04:33:49;;;;;;;;;;;;;;;;;;5092302;28;19968;-71
2022/11/28 04:36:15;;;;;;;;;;;;;;;;;;5086546;28;19990;-71
2022/11/28 04:38:41;;;;;;;;;;;;;;;;;;5095476;28;20491;-71
2022/11/28 04:41:07;;;;;;;;;;;;;;;;;;5094647;28;20445;-71
2022/11/28 04:43:32;;;;;;;;;;;;;;;;;;5094413;28;20015;-71
2022/11/28 04:45:58;;;;;;;;;;;;;;;;;;5091885;28;19949;-71
2022/11/28 04:48:24;;;;;;;;;;;;;;;;;;5095118;28;19924;-72
2022/11/28 04:50:50;;;;;;;;;;;;;;;;;;5091670;28;19932;-71
2022/11/28 04:53:16;;;;;;;;;;;;;;;;;;5092480;28;19924;-71
2022/11/28 04:55:42;;;;;;;;;;;;;;;;;;5092498;28;20025;-71
2022/11/28 04:58:08;;;;;;;;;;;;;;;;;;5095420;28;20373;-71
2022/11/28 05:00:34;;;;;;;;;;;;;;;;;;5090296;28;19928;-71
2022/11/28 05:03:00;;;;;;;;;;;;;;;;;;5093279;28;19949;-71
2022/11/28 05:05:27;;;;;;;;;;;;;;;;;;5087287;28;19924;-71
2022/11/28 05:07:53;;;;;;;;;;;;;;;;;;5086649;28;19981;-70
2022/11/28 05:10:19;;;;;;;;;;;;;;;;;;5087888;28;19931;-71
2022/11/28 05:12:45;;;;;;;;;;;;;;;;;;5089060;28;19942;-71
2022/11/28 05:15:11;;;;;;;;;;;;;;;;;;5095734;28;19931;-71
2022/11/28 05:17:37;;;;;;;;;;;;;;;;;;5095384;28;19953;-71
2022/11/28 05:20:03;;;;;;;;;;;;;;;;;;5085034;28;20009;-70
2022/11/28 05:22:29;;;;;;;;;;;;;;;;;;5095776;28;19928;-71
2022/11/28 05:24:55;;;;;;;;;;;;;;;;;;5095617;28;19971;-71
2022/11/28 05:27:20;;;;;;;;;;;;;;;;;;5093176;28;19924;-71
2022/11/28 05:29:46;;;;;;;;;;;;;;;;;;5090394;28;19931;-72
2022/11/28 05:32:12;;;;;;;;;;;;;;;;;;5088411;28;20759;-71
2022/11/28 05:34:38;;;;;;;;;;;;;;;;;;5091656;28;19931;-71
2022/11/28 05:37:04;;;;;;;;;;;;;;;;;;5092092;28;19924;-72
2022/11/28 05:39:30;;;;;;;;;;;;;;;;;;5091221;28;19975;-71
2022/11/28 05:41:56;;;;;;;;;;;;;;;;;;5078465;28;20461;-71
2022/11/28 05:44:22;;;;;;;;;;;;;;;;;;5091036;28;19931;-71
2022/11/28 05:46:48;;;;;;;;;;;;;;;;;;5091683;28;19931;-72
2022/11/28 05:49:14;;;;;;;;;;;;;;;;;;5090076;28;19924;-72
2022/11/28 05:51:40;;;;;;;;;;;;;;;;;;5089561;28;19924;-71
2022/11/28 05:54:06;;;;;;;;;;;;;;;;;;5088208;28;19932;-72
2022/11/28 05:56:32;;;;;;;;;;;;;;;;;;5092487;28;19943;-72
2022/11/28 05:58:57;;;;;;;;;;;;;;;;;;5093430;28;19931;-71
2022/11/28 06:01:23;;;;;;;;;;;;;;;;;;5088437;28;19924;-71
2022/11/28 06:03:50;;;;;;;;;;;;;;;;;;5091728;28;20306;-71
2022/11/28 06:06:16;;;;;;;;;;;;;;;;;;5092165;28;20365;-70
2022/11/28 06:08:42;;;;;;;;;;;;;;;;;;5091943;28;20026;-72
2022/11/28 06:11:08;;;;;;;;;;;;;;;;;;5088487;28;20022;-70
2022/11/28 06:13:34;;;;;;;;;;;;;;;;;;5087785;28;19990;-71
2022/11/28 06:16:00;;;;;;;;;;;;;;;;;;5086865;28;19931;-71
2022/11/28 06:18:26;;;;;;;;;;;;;;;;;;5091153;28;20016;-72
2022/11/28 06:20:52;;;;;;;;;;;;;;;;;;5091402;28;19925;-72
2022/11/28 06:23:18;;;;;;;;;;;;;;;;;;5088589;28;19931;-72
2022/11/28 06:25:43;;;;;;;;;;;;;;;;;;5087546;28;19924;-72
2022/11/28 06:28:09;;;;;;;;;;;;;;;;;;5089645;28;19978;-72
2022/11/28 06:30:35;;;;;;;;;;;;;;;;;;5092578;28;19928;-71
2022/11/28 06:33:01;;;;;;;;;;;;;;;;;;5067107;28;20294;-70
2022/11/28 06:35:27;;;;;;;;;;;;;;;;;;5092097;28;19931;-72
2022/11/28 06:37:53;;;;;;;;;;;;;;;;;;5091087;28;19951;-72
2022/11/28 06:40:19;;;;;;;;;;;;;;;;;;5090653;28;19976;-72
2022/11/28 06:42:49;;;;;;;;;;;;;;;;;;5085358;28;19924;-72
2022/11/28 06:45:15;;;;;;;;;;;;;;;;;;5087912;28;19932;-72
2022/11/28 06:47:41;;;;;;;;;;;;;;;;;;5090838;28;19923;-72
2022/11/28 06:50:08;;;;;;;;;;;;;;;;;;5088267;28;19950;-72
2022/11/28 06:52:34;;;;;;;;;;;;;;;;;;5088320;28;19924;-72
2022/11/28 06:55:00;;;;;;;;;;;;;;;;;;5084900;28;20266;-72
2022/11/28 06:57:26;;;;;;;;;;;;;;;;;;5083733;28;20269;-72
2022/11/28 06:59:52;;;;;;;;;;;;;;;;;;5081287;28;19924;-72
2022/11/28 07:02:17;;;;;;;;;;;;;;;;;;5087111;28;19951;-73
2022/11/28 07:04:43;;;;;;;;;;;;;;;;;;5084354;28;19931;-72
2022/11/28 07:07:09;;;;;;;;;;;;;;;;;;5091406;28;19924;-71
2022/11/28 07:09:35;;;;;;;;;;;;;;;;;;5078012;28;19932;-72
2022/11/28 07:12:01;;;;;;;;;;;;;;;;;;5080201;28;19924;-71
2022/11/28 07:14:27;;;;;;;;;;;;;;;;;;5088099;28;19993;-72
2022/11/28 07:16:53;;;;;;;;;;;;;;;;;;5084520;28;19931;-72
2022/11/28 07:19:21;;;;;;;;;;;;;;;;;;5088764;28;19924;-72
2022/11/28 07:21:47;;;;;;;;;;;;;;;;;;5084421;28;20015;-72
2022/11/28 07:24:13;;;;;;;;;;;;;;;;;;5086120;28;20039;-72
2022/11/28 07:26:39;;;;;;;;;;;;;;;;;;5088460;28;20459;-73
2022/11/28 07:29:06;;;;;;;;;;;;;;;;;;5082371;28;19933;-72
2022/11/28 07:31:32;;;;;;;;;;;;;;;;;;5083075;28;19947;-72
2022/11/28 07:33:58;;;;;;;;;;;;;;;;;;5087180;28;19924;-71
2022/11/28 07:36:24;;;;;;;;;;;;;;;;;;5088408;28;19931;-71
2022/11/28 07:38:50;;;;;;;;;;;;;;;;;;5086061;28;19924;-71
2022/11/28 07:41:16;;;;;;;;;;;;;;;;;;5082446;28;19924;-71
2022/11/28 07:43:42;;;;;;;;;;;;;;;;;;5080008;28;19939;-71
2022/11/28 07:46:08;;;;;;;;;;;;;;;;;;5087565;28;19928;-71
2022/11/28 07:48:33;;;;;;;;;;;;;;;;;;5092298;28;20369;-70
2022/11/28 07:50:59;;;;;;;;;;;;;;;;;;5087574;28;20373;-70
2022/11/28 07:53:25;;;;;;;;;;;;;;;;;;5089307;28;20338;-71
2022/11/28 07:55:51;;;;;;;;;;;;;;;;;;5088106;28;20296;-71
2022/11/28 07:58:17;;;;;;;;;;;;;;;;;;5072600;28;19925;-72
2022/11/28 08:00:43;;;;;;;;;;;;;;;;;;5072688;28;19931;-71
2022/11/28 08:03:09;;;;;;;;;;;;;;;;;;5083855;28;20004;-70
2022/11/28 08:05:35;;;;;;;;;;;;;;;;;;5074854;28;20395;-70
2022/11/28 08:08:01;;;;;;;;;;;;;;;;;;5076155;28;19928;-70
2022/11/28 08:10:27;;;;;;;;;;;;;;;;;;5092185;28;19986;-71
2022/11/28 08:12:53;;;;;;;;;;;;;;;;;;5092518;28;19924;-71
2022/11/28 08:15:19;;;;;;;;;;;;;;;;;;5082254;28;19924;-71
2022/11/28 08:17:45;;;;;;;;;;;;;;;;;;5088539;28;20372;-72
2022/11/28 08:20:11;;;;;;;;;;;;;;;;;;5087662;28;19924;-72
2022/11/28 08:22:37;;;;;;;;;;;;;;;;;;5091607;28;19924;-72
2022/11/28 08:25:02;;;;;;;;;;;;;;;;;;5091327;28;19950;-72
2022/11/28 08:27:28;;;;;;;;;;;;;;;;;;5088056;28;19932;-72
2022/11/28 08:29:54;;;;;;;;;;;;;;;;;;5085410;28;19928;-72
2022/11/28 08:32:20;;;;;;;;;;;;;;;;;;5091582;28;19950;-72
2022/11/28 08:34:46;;;;;;;;;;;;;;;;;;5086551;28;20458;-72
2022/11/28 08:37:12;;;;;;;;;;;;;;;;;;5088512;28;19928;-71
2022/11/28 08:39:38;;;;;;;;;;;;;;;;;;5087256;28;19924;-73
2022/11/28 08:42:04;;;;;;;;;;;;;;;;;;5086854;28;19924;-71
2022/11/28 08:44:30;;;;;;;;;;;;;;;;;;5083489;28;19935;-72
2022/11/28 08:46:55;;;;;;;;;;;;;;;;;;5087066;28;19925;-72
2022/11/28 08:49:21;;;;;;;;;;;;;;;;;;5082664;28;19931;-71
2022/11/28 08:51:47;;;;;;;;;;;;;;;;;;5085940;28;19960;-71
2022/11/28 08:54:13;;;;;;;;;;;;;;;;;;5079498;28;19924;-71
2022/11/28 08:56:39;;;;;;;;;;;;;;;;;;5077872;28;19970;-71
2022/11/28 08:59:06;;;;;;;;;;;;;;;;;;5090198;28;19991;-71
2022/11/28 09:01:32;;;;;;;;;;;;;;;;;;5092506;28;19931;-72
2022/11/28 09:03:58;;;;;;;;;;;;;;;;;;5087393;28;19924;-71
2022/11/28 09:06:23;;;;;;;;;;;;;;;;;;5080366;28;20003;-71
2022/11/28 09:08:49;;;;;;;;;;;;;;;;;;5083192;28;20289;-70
2022/11/28 09:11:16;;;;;;;;;;;;;;;;;;5090291;28;19924;-70
2022/11/28 09:13:42;;;;;;;;;;;;;;;;;;5088563;28;19932;-71
2022/11/28 09:16:07;;;;;;;;;;;;;;;;;;5083104;28;19931;-73
2022/11/28 09:18:33;;;;;;;;;;;;;;;;;;5093391;28;20984;-73
2022/11/28 09:20:59;;;;;;;;;;;;;;;;;;5091079;28;19928;-72
2022/11/28 09:23:25;;;;;;;;;;;;;;;;;;5085834;28;19935;-74
2022/11/28 09:25:51;;;;;;;;;;;;;;;;;;5088083;28;19924;-71
2022/11/28 09:28:17;;;;;;;;;;;;;;;;;;5090280;28;20365;-71
2022/11/28 09:30:43;;;;;;;;;;;;;;;;;;5090379;28;19924;-71
2022/11/28 09:33:11;;;;;;;;;;;;;;;;;;5089545;28;19972;-70
2022/11/28 09:35:37;;;;;;;;;;;;;;;;;;5080822;28;19932;-70
2022/11/28 09:38:02;;;;;;;;;;;;;;;;;;5084892;28;19924;-70
2022/11/28 09:40:28;;;;;;;;;;;;;;;;;;5092860;28;20142;-70
2022/11/28 09:42:54;;;;;;;;;;;;;;;;;;5082336;28;19932;-70
2022/11/28 09:45:20;;;;;;;;;;;;;;;;;;5092040;28;19924;-70
2022/11/28 09:47:46;;;;;;;;;;;;;;;;;;5087170;28;19924;-70
2022/11/28 09:50:15;;;;;;;;;;;;;;;;;;5086664;28;20532;-71
2022/11/28 09:52:41;;;;;;;;;;;;;;;;;;5088882;28;19924;-70
2022/11/28 09:55:07;;;;;;;;;;;;;;;;;;5093432;28;20065;-70
2022/11/28 09:57:33;;;;;;;;;;;;;;;;;;5091296;28;19965;-71
2022/11/28 09:59:58;;;;;;;;;;;;;;;;;;5093575;28;20368;-70
2022/11/28 10:02:24;;;;;;;;;;;;;;;;;;5090221;28;19925;-71
2022/11/28 10:04:50;;;;;;;;;;;;;;;;;;5091872;28;19931;-71
2022/11/28 10:07:16;;;;;;;;;;;;;;;;;;5087501;28;19924;-70
2022/11/28 10:09:42;;;;;;;;;;;;;;;;;;5090959;28;19924;-69
2022/11/28 10:12:08;;;;;;;;;;;;;;;;;;5092290;28;19931;-70
2022/11/28 10:14:34;;;;;;;;;;;;;;;;;;5093751;28;20438;-70
2022/11/28 10:17:00;;;;;;;;;;;;;;;;;;5089671;28;19932;-70
2022/11/28 10:19:26;;;;;;;;;;;;;;;;;;5092254;28;19924;-70
2022/11/28 10:21:52;;;;;;;;;;;;;;;;;;5089897;28;19924;-70
2022/11/28 10:24:18;;;;;;;;;;;;;;;;;;5083024;28;19924;-70
2022/11/28 10:26:43;;;;;;;;;;;;;;;;;;5086497;28;20261;-70
2022/11/28 10:29:09;;;;;;;;;;;;;;;;;;5089639;28;19976;-71
2022/11/28 10:31:35;;;;;;;;;;;;;;;;;;5090672;28;19924;-72
2022/11/28 10:34:01;;;;;;;;;;;;;;;;;;5081689;28;20392;-72
2022/11/28 10:36:27;;;;;;;;;;;;;;;;;;5085930;28;19924;-72
2022/11/28 10:38:53;;;;;;;;;;;;;;;;;;5085581;28;19924;-71
2022/11/28 10:41:19;;;;;;;;;;;;;;;;;;5087538;28;20377;-71
2022/11/28 10:43:45;;;;;;;;;;;;;;;;;;5087026;28;19924;-71
2022/11/28 10:46:11;;;;;;;;;;;;;;;;;;5082544;28;20400;-71
2022/11/28 10:48:37;;;;;;;;;;;;;;;;;;5088392;28;19928;-71
2022/11/28 10:51:03;;;;;;;;;;;;;;;;;;5084936;28;20350;-71
2022/11/28 10:53:29;;;;;;;;;;;;;;;;;;5082482;28;19924;-72
2022/11/28 10:55:55;;;;;;;;;;;;;;;;;;5082914;28;19931;-70
2022/11/28 10:58:21;;;;;;;;;;;;;;;;;;5088814;28;19959;-71
2022/11/28 11:00:50;;;;;;;;;;;;;;;;;;5070090;28;20408;-71
2022/11/28 11:03:16;;;;;;;;;;;;;;;;;;5088390;28;19968;-71
2022/11/28 11:05:42;;;;;;;;;;;;;;;;;;5081903;28;19948;-71
2022/11/28 11:08:08;;;;;;;;;;;;;;;;;;5085505;28;20189;-71
2022/11/28 11:10:34;;;;;;;;;;;;;;;;;;5091236;28;19924;-71
2022/11/28 11:13:00;;;;;;;;;;;;;;;;;;5090352;28;19924;-72
2022/11/28 11:15:28;;;;;;;;;;;;;;;;;;5088816;28;20304;-71
2022/11/28 11:17:54;;;;;;;;;;;;;;;;;;5087728;28;19959;-71
2022/11/28 11:20:20;;;;;;;;;;;;;;;;;;5085631;28;20005;-71
2022/11/28 11:22:46;;;;;;;;;;;;;;;;;;5080720;28;19975;-71
2022/11/28 11:25:12;;;;;;;;;;;;;;;;;;5090109;28;20011;-71
2022/11/28 11:27:38;;;;;;;;;;;;;;;;;;5089571;28;19931;-71
2022/11/28 11:30:04;;;;;;;;;;;;;;;;;;5085238;28;19928;-71
2022/11/28 11:32:30;;;;;;;;;;;;;;;;;;5086168;28;19931;-71
2022/11/28 11:34:56;;;;;;;;;;;;;;;;;;5089867;28;19970;-71
2022/11/28 11:37:22;;;;;;;;;;;;;;;;;;5089028;28;19924;-73
2022/11/28 11:39:48;;;;;;;;;;;;;;;;;;5089128;28;20424;-75
2022/11/28 11:42:14;;;;;;;;;;;;;;;;;;5085968;28;20272;-75
2022/11/28 11:44:40;;;;;;;;;;;;;;;;;;5088184;28;19931;-71
2022/11/28 11:47:06;;;;;;;;;;;;;;;;;;5082031;28;20396;-72
2022/11/28 11:49:32;;;;;;;;;;;;;;;;;;5090789;28;20007;-72
2022/11/28 11:51:58;;;;;;;;;;;;;;;;;;5089410;28;19924;-71
2022/11/28 11:54:24;;;;;;;;;;;;;;;;;;5089923;28;20411;-72
2022/11/28 11:56:50;;;;;;;;;;;;;;;;;;5090940;28;20333;-74
2022/11/28 11:59:15;;;;;;;;;;;;;;;;;;5088608;28;19931;-72
2022/11/28 12:01:41;;;;;;;;;;;;;;;;;;5087050;28;19931;-74
2022/11/28 12:04:07;;;;;;;;;;;;;;;;;;5090236;28;19963;-74
2022/11/28 12:06:33;;;;;;;;;;;;;;;;;;5084143;28;20023;-73
2022/11/28 12:08:59;;;;;;;;;;;;;;;;;;5085796;28;19924;-74
2022/11/28 12:11:25;;;;;;;;;;;;;;;;;;5087293;28;19932;-72
2022/11/28 12:13:51;;;;;;;;;;;;;;;;;;5087800;28;19931;-73
2022/11/28 12:16:17;;;;;;;;;;;;;;;;;;5082062;28;20488;-73
2022/11/28 12:18:43;;;;;;;;;;;;;;;;;;5081491;28;20351;-77
2022/11/28 12:21:09;;;;;;;;;;;;;;;;;;5088273;28;20341;-75
2022/11/28 12:23:35;;;;;;;;;;;;;;;;;;5091230;28;20393;-73
2022/11/28 12:26:00;;;;;;;;;;;;;;;;;;5092515;28;19980;-73
2022/11/28 12:28:26;;;;;;;;;;;;;;;;;;5074093;28;19966;-74
2022/11/28 12:30:52;;;;;;;;;;;;;;;;;;5089155;28;19924;-75
2022/11/28 12:33:18;;;;;;;;;;;;;;;;;;5089699;28;19978;-75
2022/11/28 12:35:44;;;;;;;;;;;;;;;;;;5090967;28;19928;-74
2022/11/28 12:38:10;;;;;;;;;;;;;;;;;;5093924;28;20354;-72
2022/11/28 12:40:36;;;;;;;;;;;;;;;;;;5090793;28;19931;-74
2022/11/28 12:43:02;;;;;;;;;;;;;;;;;;5090563;28;19925;-74
2022/11/28 12:45:28;;;;;;;;;;;;;;;;;;5092115;28;19970;-72
2022/11/28 12:47:54;;;;;;;;;;;;;;;;;;5085160;28;20015;-72
2022/11/28 12:50:20;;;;;;;;;;;;;;;;;;5087581;28;19932;-73
2022/11/28 12:52:45;;;;;;;;;;;;;;;;;;5089904;28;19928;-73
2022/11/28 12:55:11;;;;;;;;;;;;;;;;;;5089064;28;19935;-73
2022/11/28 12:57:40;;;;;;;;;;;;;;;;;;5086831;28;20018;-73
2022/11/28 13:00:06;;;;;;;;;;;;;;;;;;5090862;28;20003;-72
2022/11/28 13:02:32;;;;;;;;;;;;;;;;;;5086079;28;19928;-73
2022/11/28 13:04:58;;;;;;;;;;;;;;;;;;5088704;28;19940;-73
2022/11/28 13:07:24;;;;;;;;;;;;;;;;;;5090059;28;19931;-74
2022/11/28 13:09:50;;;;;;;;;;;;;;;;;;5087655;28;20007;-74
2022/11/28 13:12:16;;;;;;;;;;;;;;;;;;5090482;28;19981;-74
2022/11/28 13:14:42;;;;;;;;;;;;;;;;;;5092793;28;19977;-74
2022/11/28 13:17:08;;;;;;;;;;;;;;;;;;5094191;28;20159;-73
2022/11/28 13:19:34;;;;;;;;;;;;;;;;;;5089293;28;20015;-74
2022/11/28 13:22:00;;;;;;;;;;;;;;;;;;5087192;28;20407;-74
2022/11/28 13:24:26;;;;;;;;;;;;;;;;;;5093172;28;19924;-74
2022/11/28 13:26:57;;;;;;;;;;;;;;;;;;5086550;28;20020;-74
2022/11/28 13:29:23;;;;;;;;;;;;;;;;;;5090837;28;19969;-73
2022/11/28 13:31:49;;;;;;;;;;;;;;;;;;5092212;28;20392;-73
2022/11/28 13:34:15;;;;;;;;;;;;;;;;;;5094046;28;20364;-74
2022/11/28 13:36:41;;;;;;;;;;;;;;;;;;5082984;28;19932;-73
2022/11/28 13:39:07;;;;;;;;;;;;;;;;;;5091049;28;19932;-73
2022/11/28 13:41:33;;;;;;;;;;;;;;;;;;5095235;28;19924;-73
2022/11/28 13:44:00;;;;;;;;;;;;;;;;;;5093654;28;19954;-74
2022/11/28 13:46:26;;;;;;;;;;;;;;;;;;5073272;28;19975;-73
2022/11/28 13:48:52;;;;;;;;;;;;;;;;;;5090522;28;20349;-72
2022/11/28 13:51:18;;;;;;;;;;;;;;;;;;5073574;28;19928;-73
2022/11/28 13:53:44;;;;;;;;;;;;;;;;;;5093836;28;19924;-73
2022/11/28 13:56:10;;;;;;;;;;;;;;;;;;5084643;28;19978;-73
2022/11/28 13:58:36;;;;;;;;;;;;;;;;;;5093484;28;19960;-73
2022/11/28 14:01:02;;;;;;;;;;;;;;;;;;5084246;28;19932;-74
2022/11/28 14:03:28;;;;;;;;;;;;;;;;;;5086310;28;19939;-74
2022/11/28 14:05:54;;;;;;;;;;;;;;;;;;5086406;28;20006;-73
2022/11/28 14:08:20;;;;;;;;;;;;;;;;;;5081684;28;20026;-73
2022/11/28 14:10:46;;;;;;;;;;;;;;;;;;5080564;28;19939;-73
2022/11/28 14:13:12;;;;;;;;;;;;;;;;;;5080784;28;19990;-73
2022/11/28 14:15:38;;;;;;;;;;;;;;;;;;5085303;28;20388;-73
2022/11/28 14:18:04;;;;;;;;;;;;;;;;;;5088063;28;20010;-73
2022/11/28 14:20:30;;;;;;;;;;;;;;;;;;5088153;28;20066;-73
2022/11/28 14:22:56;;;;;;;;;;;;;;;;;;5084011;28;19943;-73
2022/11/28 14:25:21;;;;;;;;;;;;;;;;;;5090278;28;20293;-73
2022/11/28 14:27:47;;;;;;;;;;;;;;;;;;5085646;28;20014;-73
2022/11/28 14:30:13;;;;;;;;;;;;;;;;;;5078134;28;19931;-73
2022/11/28 14:32:39;;;;;;;;;;;;;;;;;;5086948;28;19931;-74
2022/11/28 14:35:05;;;;;;;;;;;;;;;;;;5086928;28;20296;-74
2022/11/28 14:37:33;;;;;;;;;;;;;;;;;;5084149;28;19954;-74
2022/11/28 14:39:59;;;;;;;;;;;;;;;;;;5078923;28;19932;-74
2022/11/28 14:42:25;;;;;;;;;;;;;;;;;;5083189;28;19934;-74
2022/11/28 14:44:51;;;;;;;;;;;;;;;;;;5082345;28;19932;-74
2022/11/28 14:47:17;;;;;;;;;;;;;;;;;;5082046;28;19928;-74
2022/11/28 14:49:43;;;;;;;;;;;;;;;;;;5080841;28;19950;-76
2022/11/28 14:52:09;;;;;;;;;;;;;;;;;;5078986;28;20018;-76
2022/11/28 14:54:35;;;;;;;;;;;;;;;;;;5064231;28;19979;-77
2022/11/28 14:57:01;;;;;;;;;;;;;;;;;;5081984;28;19995;-76
2022/11/28 14:59:27;;;;;;;;;;;;;;;;;;5085564;28;19982;-76
2022/11/28 15:01:53;;;;;;;;;;;;;;;;;;5082884;28;20007;-73
2022/11/28 15:04:22;;;;;;;;;;;;;;;;;;5063622;28;19928;-71
2022/11/28 15:06:49;;;;;;;;;;;;;;;;;;5090741;28;20046;-71
2022/11/28 15:09:15;;;;;;;;;;;;;;;;;;5087908;28;19927;-69
2022/11/28 15:11:41;;;;;;;;;;;;;;;;;;5083021;28;19931;-71
2022/11/28 15:14:07;;;;;;;;;;;;;;;;;;5076001;28;19928;-71
2022/11/28 15:16:33;;;;;;;;;;;;;;;;;;5082747;28;19959;-71
2022/11/28 15:18:59;;;;;;;;;;;;;;;;;;5080833;28;20029;-74
2022/11/28 15:21:25;;;;;;;;;;;;;;;;;;5082484;28;20010;-72
2022/11/28 15:23:51;;;;;;;;;;;;;;;;;;5082312;28;19924;-72
2022/11/28 15:26:17;;;;;;;;;;;;;;;;;;5088426;28;20404;-72
2022/11/28 15:28:43;;;;;;;;;;;;;;;;;;5083089;28;19948;-74
2022/11/28 15:31:09;;;;;;;;;;;;;;;;;;5081636;28;19928;-73
2022/11/28 15:33:35;;;;;;;;;;;;;;;;;;5084884;28;20228;-72
2022/11/28 15:36:01;;;;;;;;;;;;;;;;;;5081467;28;20368;-71
2022/11/28 15:38:27;;;;;;;;;;;;;;;;;;5087346;28;19935;-75
2022/11/28 15:40:53;;;;;;;;;;;;;;;;;;5085531;28;19935;-73
2022/11/28 15:43:19;;;;;;;;;;;;;;;;;;5085869;28;19923;-72
2022/11/28 15:45:45;;;;;;;;;;;;;;;;;;5084381;28;20360;-73
2022/11/28 15:48:10;;;;;;;;;;;;;;;;;;5084766;28;19924;-73
2022/11/28 15:50:36;;;;;;;;;;;;;;;;;;5077317;28;19969;-72
2022/11/28 15:53:02;;;;;;;;;;;;;;;;;;5084833;28;19994;-73
2022/11/28 15:55:29;;;;;;;;;;;;;;;;;;5081583;28;20033;-74
2022/11/28 15:57:55;;;;;;;;;;;;;;;;;;5082935;28;19950;-72
2022/11/28 16:00:23;;;;;;;;;;;;;;;;;;5083262;28;20369;-76
2022/11/28 16:02:49;;;;;;;;;;;;;;;;;;5089536;28;19924;-75
2022/11/28 16:05:14;;;;;;;;;;;;;;;;;;5084145;28;19990;-74
2022/11/28 16:07:40;;;;;;;;;;;;;;;;;;5084644;28;19942;-73
2022/11/28 16:10:06;;;;;;;;;;;;;;;;;;5084718;28;19925;-74
2022/11/28 16:12:32;;;;;;;;;;;;;;;;;;5085745;28;20066;-72
2022/11/28 16:15:00;;;;;;;;;;;;;;;;;;5082263;28;20011;-76
2022/11/28 16:17:26;;;;;;;;;;;;;;;;;;5091316;28;19930;-75
2022/11/28 16:19:52;;;;;;;;;;;;;;;;;;5093838;28;20322;-76
2022/11/28 16:22:18;;;;;;;;;;;;;;;;;;5091624;28;19927;-74
2022/11/28 16:24:45;;;;;;;;;;;;;;;;;;5086417;28;19950;-72
2022/11/28 16:27:11;;;;;;;;;;;;;;;;;;5093183;28;19924;-72
2022/11/28 16:29:37;;;;;;;;;;;;;;;;;;5088045;28;19928;-72
2022/11/28 16:32:04;;;;;;;;;;;;;;;;;;5088599;28;19924;-73
2022/11/28 16:34:30;;;;;;;;;;;;;;;;;;5084855;28;20368;-73
2022/11/28 16:36:55;;;;;;;;;;;;;;;;;;5089762;28;19924;-72